sensor_id;sensor_type;location;lat;lon;timestamp;pressure;altitude;pressure_sealevel;temperature;humidity
18533;BME280;9396;51.510;11.934;2023-04-29T00:01:17;99899.63;;;12.08;100.00
18533;BME280;9396;51.510;11.934;2023-04-29T00:03:45;99890.97;;;12.06;100.00
18533;BME280;9396;51.510;11.934;2023-04-29T00:06:11;99887.66;;;12.04;100.00
18533;BME280;9396;51.510;11.934;2023-04-29T00:08:38;99878.19;;;12.01;100.00
18533;BME280;9396;51.510;11.934;2023-04-29T00:11:05;99876.19;;;12.03;100.00
18533;BME280;9396;51.510;11.934;2023-04-29T00:13:31;99886.19;;;12.01;100.00
18533;BME280;9396;51.510;11.934;2023-04-29T00:15:58;99888.38;;;11.98;100.00
18533;BME280;9396;51.510;11.934;2023-04-29T00:18:25;99888.69;;;11.95;100.00
18533;BME280;9396;51.510;11.934;2023-04-29T00:20:53;99887.25;;;11.92;100.00
18533;BME280;9396;51.510;11.934;2023-04-29T00:23:19;99891.22;;;11.96;100.00
18533;BME280;9396;51.510;11.934;2023-04-29T00:25:46;99893.69;;;11.98;100.00
18533;BME280;9396;51.510;11.934;2023-04-29T00:28:13;99900.50;;;12.00;100.00
18533;BME280;9396;51.510;11.934;2023-04-29T00:30:39;99895.00;;;12.02;100.00
18533;BME280;9396;51.510;11.934;2023-04-29T00:33:06;99900.28;;;11.79;100.00
18533;BME280;9396;51.510;11.934;2023-04-29T00:35:33;99908.31;;;11.63;100.00
18533;BME280;9396;51.510;11.934;2023-04-29T00:38:01;99910.97;;;11.63;100.00
18533;BME280;9396;51.510;11.934;2023-04-29T00:40:28;99908.66;;;11.60;100.00
18533;BME280;9396;51.510;11.934;2023-04-29T00:42:54;99901.72;;;11.51;100.00
18533;BME280;9396;51.510;11.934;2023-04-29T00:45:21;99905.41;;;11.42;100.00
18533;BME280;9396;51.510;11.934;2023-04-29T00:47:48;99900.44;;;11.39;100.00
18533;BME280;9396;51.510;11.934;2023-04-29T00:50:15;99911.38;;;11.44;100.00
18533;BME280;9396;51.510;11.934;2023-04-29T00:52:42;99902.19;;;11.46;100.00
18533;BME280;9396;51.510;11.934;2023-04-29T00:55:10;99815.03;;;10.94;100.00
18533;BME280;9396;51.510;11.934;2023-04-29T00:57:38;99899.72;;;11.45;100.00
18533;BME280;9396;51.510;11.934;2023-04-29T01:00:05;99915.03;;;11.43;100.00
18533;BME280;9396;51.510;11.934;2023-04-29T01:02:34;99912.75;;;11.32;100.00
18533;BME280;9396;51.510;11.934;2023-04-29T01:05:01;99908.41;;;11.39;100.00
18533;BME280;9396;51.510;11.934;2023-04-29T01:07:33;99836.66;;;10.82;100.00
18533;BME280;9396;51.510;11.934;2023-04-29T01:10:08;99918.84;;;11.48;100.00
18533;BME280;9396;51.510;11.934;2023-04-29T01:12:44;99914.97;;;11.59;100.00
18533;BME280;9396;51.510;11.934;2023-04-29T01:15:21;99917.31;;;11.62;100.00
18533;BME280;9396;51.510;11.934;2023-04-29T01:17:50;99911.31;;;11.68;100.00
18533;BME280;9396;51.510;11.934;2023-04-29T01:20:21;99790.72;;;10.97;100.00
18533;BME280;9396;51.510;11.934;2023-04-29T01:22:48;99920.25;;;11.83;100.00
18533;BME280;9396;51.510;11.934;2023-04-29T01:25:16;99919.72;;;11.88;100.00
18533;BME280;9396;51.510;11.934;2023-04-29T01:27:51;99919.59;;;11.81;100.00
18533;BME280;9396;51.510;11.934;2023-04-29T01:30:27;99918.75;;;11.89;100.00
18533;BME280;9396;51.510;11.934;2023-04-29T01:33:00;99934.19;;;11.93;100.00
18533;BME280;9396;51.510;11.934;2023-04-29T01:35:43;99935.22;;;11.92;100.00
18533;BME280;9396;51.510;11.934;2023-04-29T01:38:20;99928.28;;;11.75;100.00
18533;BME280;9396;51.510;11.934;2023-04-29T01:40:57;99928.44;;;11.81;100.00
18533;BME280;9396;51.510;11.934;2023-04-29T01:43:29;99929.91;;;11.84;100.00
18533;BME280;9396;51.510;11.934;2023-04-29T01:45:58;99923.97;;;11.74;100.00
18533;BME280;9396;51.510;11.934;2023-04-29T01:48:25;99922.94;;;11.83;100.00
18533;BME280;9396;51.510;11.934;2023-04-29T01:50:53;99924.75;;;11.82;100.00
18533;BME280;9396;51.510;11.934;2023-04-29T01:53:20;99930.44;;;11.79;100.00
18533;BME280;9396;51.510;11.934;2023-04-29T01:55:46;99939.28;;;11.80;100.00
18533;BME280;9396;51.510;11.934;2023-04-29T01:58:14;99932.97;;;11.73;100.00
18533;BME280;9396;51.510;11.934;2023-04-29T02:00:41;99935.09;;;11.77;100.00
18533;BME280;9396;51.510;11.934;2023-04-29T02:03:08;99922.47;;;11.71;100.00
18533;BME280;9396;51.510;11.934;2023-04-29T02:05:35;99927.31;;;11.60;100.00
18533;BME280;9396;51.510;11.934;2023-04-29T02:08:01;99928.34;;;11.51;100.00
18533;BME280;9396;51.510;11.934;2023-04-29T02:10:28;99928.16;;;11.60;100.00
18533;BME280;9396;51.510;11.934;2023-04-29T02:12:55;99930.63;;;11.70;100.00
18533;BME280;9396;51.510;11.934;2023-04-29T02:15:25;99926.81;;;11.72;100.00
18533;BME280;9396;51.510;11.934;2023-04-29T02:17:51;99923.59;;;11.77;100.00
18533;BME280;9396;51.510;11.934;2023-04-29T02:20:18;99932.09;;;11.80;100.00
18533;BME280;9396;51.510;11.934;2023-04-29T02:22:45;99930.25;;;11.81;100.00
18533;BME280;9396;51.510;11.934;2023-04-29T02:25:12;99933.28;;;11.78;100.00
18533;BME280;9396;51.510;11.934;2023-04-29T02:27:39;99928.25;;;11.83;100.00
18533;BME280;9396;51.510;11.934;2023-04-29T02:30:06;99931.41;;;11.78;100.00
18533;BME280;9396;51.510;11.934;2023-04-29T02:32:35;99936.97;;;11.69;100.00
18533;BME280;9396;51.510;11.934;2023-04-29T02:35:04;99937.09;;;11.75;100.00
18533;BME280;9396;51.510;11.934;2023-04-29T02:37:31;99937.09;;;11.75;100.00
18533;BME280;9396;51.510;11.934;2023-04-29T02:39:57;99941.31;;;11.62;100.00
18533;BME280;9396;51.510;11.934;2023-04-29T02:42:24;99818.03;;;10.82;100.00
18533;BME280;9396;51.510;11.934;2023-04-29T02:44:51;99947.78;;;11.59;100.00
18533;BME280;9396;51.510;11.934;2023-04-29T02:47:17;99947.97;;;11.50;100.00
18533;BME280;9396;51.510;11.934;2023-04-29T02:49:45;99947.34;;;11.48;100.00
18533;BME280;9396;51.510;11.934;2023-04-29T02:52:12;99944.50;;;11.41;100.00
18533;BME280;9396;51.510;11.934;2023-04-29T02:54:38;99952.31;;;11.43;100.00
18533;BME280;9396;51.510;11.934;2023-04-29T02:57:05;99948.00;;;11.42;100.00
18533;BME280;9396;51.510;11.934;2023-04-29T02:59:32;99950.50;;;11.43;100.00
18533;BME280;9396;51.510;11.934;2023-04-29T03:01:58;99952.50;;;11.49;100.00
18533;BME280;9396;51.510;11.934;2023-04-29T03:04:26;99948.81;;;11.50;100.00
18533;BME280;9396;51.510;11.934;2023-04-29T03:06:55;99856.28;;;10.98;100.00
18533;BME280;9396;51.510;11.934;2023-04-29T03:09:22;99936.66;;;11.56;100.00
18533;BME280;9396;51.510;11.934;2023-04-29T03:11:48;99941.66;;;11.51;100.00
18533;BME280;9396;51.510;11.934;2023-04-29T03:14:15;99941.13;;;11.55;100.00
18533;BME280;9396;51.510;11.934;2023-04-29T03:16:42;99935.00;;;11.55;100.00
18533;BME280;9396;51.510;11.934;2023-04-29T03:19:08;99942.66;;;11.50;100.00
18533;BME280;9396;51.510;11.934;2023-04-29T03:21:36;99928.50;;;11.49;100.00
18533;BME280;9396;51.510;11.934;2023-04-29T03:24:04;99949.28;;;11.54;100.00
18533;BME280;9396;51.510;11.934;2023-04-29T03:26:31;99947.66;;;11.53;100.00
18533;BME280;9396;51.510;11.934;2023-04-29T03:28:58;99940.50;;;11.53;100.00
18533;BME280;9396;51.510;11.934;2023-04-29T03:31:24;99941.97;;;11.64;100.00
18533;BME280;9396;51.510;11.934;2023-04-29T03:33:51;99941.63;;;11.59;100.00
18533;BME280;9396;51.510;11.934;2023-04-29T03:36:18;99955.94;;;11.58;100.00
18533;BME280;9396;51.510;11.934;2023-04-29T03:38:45;99937.63;;;11.63;100.00
18533;BME280;9396;51.510;11.934;2023-04-29T03:41:13;99952.13;;;11.60;100.00
18533;BME280;9396;51.510;11.934;2023-04-29T03:43:40;99954.59;;;11.70;100.00
18533;BME280;9396;51.510;11.934;2023-04-29T03:46:08;99944.78;;;11.70;100.00
18533;BME280;9396;51.510;11.934;2023-04-29T03:48:34;99943.47;;;11.66;100.00
18533;BME280;9396;51.510;11.934;2023-04-29T03:51:02;99939.94;;;11.74;100.00
18533;BME280;9396;51.510;11.934;2023-04-29T03:53:28;99945.72;;;11.85;100.00
18533;BME280;9396;51.510;11.934;2023-04-29T03:55:55;99939.91;;;11.82;100.00
18533;BME280;9396;51.510;11.934;2023-04-29T03:58:23;99947.75;;;11.75;100.00
18533;BME280;9396;51.510;11.934;2023-04-29T04:00:50;99942.78;;;11.72;100.00
18533;BME280;9396;51.510;11.934;2023-04-29T04:03:16;99946.63;;;11.70;100.00
18533;BME280;9396;51.510;11.934;2023-04-29T04:05:43;99944.44;;;11.73;100.00
18533;BME280;9396;51.510;11.934;2023-04-29T04:08:10;99954.28;;;11.73;100.00
18533;BME280;9396;51.510;11.934;2023-04-29T04:10:36;99958.28;;;11.69;100.00
18533;BME280;9396;51.510;11.934;2023-04-29T04:13:03;99950.56;;;11.82;100.00
18533;BME280;9396;51.510;11.934;2023-04-29T04:15:31;99953.06;;;11.83;100.00
18533;BME280;9396;51.510;11.934;2023-04-29T04:17:57;99956.84;;;11.89;100.00
18533;BME280;9396;51.510;11.934;2023-04-29T04:20:24;99950.06;;;11.87;100.00
18533;BME280;9396;51.510;11.934;2023-04-29T04:22:51;99952.91;;;11.85;100.00
18533;BME280;9396;51.510;11.934;2023-04-29T04:25:19;99957.34;;;11.93;100.00
18533;BME280;9396;51.510;11.934;2023-04-29T04:27:45;99957.84;;;11.96;100.00
18533;BME280;9396;51.510;11.934;2023-04-29T04:30:12;99958.47;;;12.06;100.00
18533;BME280;9396;51.510;11.934;2023-04-29T04:32:40;99953.97;;;12.07;100.00
18533;BME280;9396;51.510;11.934;2023-04-29T04:35:07;99958.47;;;12.06;100.00
18533;BME280;9396;51.510;11.934;2023-04-29T04:37:34;99961.50;;;12.03;100.00
18533;BME280;9396;51.510;11.934;2023-04-29T04:40:00;99970.47;;;12.02;100.00
18533;BME280;9396;51.510;11.934;2023-04-29T04:42:27;99975.81;;;12.02;100.00
18533;BME280;9396;51.510;11.934;2023-04-29T04:44:54;99974.09;;;12.09;100.00
18533;BME280;9396;51.510;11.934;2023-04-29T04:47:21;99985.72;;;12.16;100.00
18533;BME280;9396;51.510;11.934;2023-04-29T04:49:49;99990.56;;;12.21;100.00
18533;BME280;9396;51.510;11.934;2023-04-29T04:52:19;99989.41;;;12.15;100.00
18533;BME280;9396;51.510;11.934;2023-04-29T04:54:45;99995.06;;;12.20;100.00
18533;BME280;9396;51.510;11.934;2023-04-29T04:57:12;99995.06;;;12.20;100.00
18533;BME280;9396;51.510;11.934;2023-04-29T04:59:39;99997.53;;;12.22;100.00
18533;BME280;9396;51.510;11.934;2023-04-29T05:02:05;100010.66;;;12.31;100.00
18533;BME280;9396;51.510;11.934;2023-04-29T05:04:32;100010.00;;;12.29;100.00
18533;BME280;9396;51.510;11.934;2023-04-29T05:07:01;100010.53;;;12.25;100.00
18533;BME280;9396;51.510;11.934;2023-04-29T05:09:27;99879.56;;;11.50;100.00
18533;BME280;9396;51.510;11.934;2023-04-29T05:11:54;100011.66;;;12.30;100.00
18533;BME280;9396;51.510;11.934;2023-04-29T05:14:23;100014.00;;;12.33;100.00
18533;BME280;9396;51.510;11.934;2023-04-29T05:16:50;100019.66;;;12.30;100.00
18533;BME280;9396;51.510;11.934;2023-04-29T05:19:17;100028.97;;;12.34;100.00
18533;BME280;9396;51.510;11.934;2023-04-29T05:21:43;100029.59;;;12.44;100.00
18533;BME280;9396;51.510;11.934;2023-04-29T05:24:12;100034.94;;;12.44;100.00
18533;BME280;9396;51.510;11.934;2023-04-29T05:26:39;100031.44;;;12.44;100.00
18533;BME280;9396;51.510;11.934;2023-04-29T05:29:07;100038.97;;;12.40;100.00
18533;BME280;9396;51.510;11.934;2023-04-29T05:31:34;100037.66;;;12.36;100.00
18533;BME280;9396;51.510;11.934;2023-04-29T05:34:01;100042.69;;;12.31;100.00
18533;BME280;9396;51.510;11.934;2023-04-29T05:36:27;100041.28;;;12.43;100.00
18533;BME280;9396;51.510;11.934;2023-04-29T05:38:54;100043.94;;;12.43;100.00
18533;BME280;9396;51.510;11.934;2023-04-29T05:41:22;100051.81;;;12.37;100.00
18533;BME280;9396;51.510;11.934;2023-04-29T05:43:49;100055.28;;;12.45;100.00
18533;BME280;9396;51.510;11.934;2023-04-29T05:46:16;100054.81;;;12.34;100.00
18533;BME280;9396;51.510;11.934;2023-04-29T05:48:44;100051.84;;;12.29;100.00
18533;BME280;9396;51.510;11.934;2023-04-29T05:51:11;100055.16;;;12.31;100.00
18533;BME280;9396;51.510;11.934;2023-04-29T05:53:38;100056.34;;;12.28;100.00
18533;BME280;9396;51.510;11.934;2023-04-29T05:56:05;100058.31;;;12.34;100.00
18533;BME280;9396;51.510;11.934;2023-04-29T05:58:34;100064.19;;;12.30;100.00
18533;BME280;9396;51.510;11.934;2023-04-29T06:01:00;100070.16;;;12.32;100.00
18533;BME280;9396;51.510;11.934;2023-04-29T06:03:27;100072.19;;;12.30;100.00
18533;BME280;9396;51.510;11.934;2023-04-29T06:05:54;100078.19;;;12.24;100.00
18533;BME280;9396;51.510;11.934;2023-04-29T06:08:21;100086.03;;;12.25;100.00
18533;BME280;9396;51.510;11.934;2023-04-29T06:10:48;100080.34;;;12.28;100.00
18533;BME280;9396;51.510;11.934;2023-04-29T06:13:16;100085.00;;;12.34;100.00
18533;BME280;9396;51.510;11.934;2023-04-29T06:15:44;100084.00;;;12.35;100.00
18533;BME280;9396;51.510;11.934;2023-04-29T06:18:11;100097.97;;;12.37;100.00
18533;BME280;9396;51.510;11.934;2023-04-29T06:20:37;100091.34;;;12.33;100.00
18533;BME280;9396;51.510;11.934;2023-04-29T06:23:04;100103.84;;;12.33;100.00
18533;BME280;9396;51.510;11.934;2023-04-29T06:25:30;100102.63;;;12.43;100.00
18533;BME280;9396;51.510;11.934;2023-04-29T06:27:57;100103.00;;;12.40;100.00
18533;BME280;9396;51.510;11.934;2023-04-29T06:30:24;100107.13;;;12.43;100.00
18533;BME280;9396;51.510;11.934;2023-04-29T06:32:52;100115.28;;;12.49;100.00
18533;BME280;9396;51.510;11.934;2023-04-29T06:35:19;100107.91;;;12.59;100.00
18533;BME280;9396;51.510;11.934;2023-04-29T06:37:47;100122.25;;;12.58;100.00
18533;BME280;9396;51.510;11.934;2023-04-29T06:40:13;100114.88;;;12.60;100.00
18533;BME280;9396;51.510;11.934;2023-04-29T06:42:40;100123.78;;;12.53;100.00
18533;BME280;9396;51.510;11.934;2023-04-29T06:45:08;100129.25;;;12.59;100.00
18533;BME280;9396;51.510;11.934;2023-04-29T06:47:35;100130.91;;;12.60;100.00
18533;BME280;9396;51.510;11.934;2023-04-29T06:50:03;100126.75;;;12.58;100.00
18533;BME280;9396;51.510;11.934;2023-04-29T06:52:30;100120.56;;;12.57;100.00
18533;BME280;9396;51.510;11.934;2023-04-29T06:54:57;100131.91;;;12.59;100.00
18533;BME280;9396;51.510;11.934;2023-04-29T06:57:24;100134.75;;;12.58;100.00
18533;BME280;9396;51.510;11.934;2023-04-29T06:59:51;100136.09;;;12.62;100.00
18533;BME280;9396;51.510;11.934;2023-04-29T07:02:17;100136.69;;;12.72;100.00
18533;BME280;9396;51.510;11.934;2023-04-29T07:04:44;100137.66;;;12.79;100.00
18533;BME280;9396;51.510;11.934;2023-04-29T07:07:12;100138.81;;;12.84;100.00
18533;BME280;9396;51.510;11.934;2023-04-29T07:09:39;100146.16;;;12.82;100.00
18533;BME280;9396;51.510;11.934;2023-04-29T07:12:05;100149.47;;;12.84;100.00
18533;BME280;9396;51.510;11.934;2023-04-29T07:14:32;100156.22;;;12.72;100.00
18533;BME280;9396;51.510;11.934;2023-04-29T07:16:59;100159.56;;;12.66;100.00
18533;BME280;9396;51.510;11.934;2023-04-29T07:19:25;100163.88;;;12.67;100.00
18533;BME280;9396;51.510;11.934;2023-04-29T07:21:52;100163.94;;;12.59;100.00
18533;BME280;9396;51.510;11.934;2023-04-29T07:24:20;100173.94;;;12.57;100.00
18533;BME280;9396;51.510;11.934;2023-04-29T07:26:47;100179.16;;;12.51;100.00
18533;BME280;9396;51.510;11.934;2023-04-29T07:29:14;100183.81;;;12.49;100.00
18533;BME280;9396;51.510;11.934;2023-04-29T07:31:41;100190.97;;;12.48;100.00
18533;BME280;9396;51.510;11.934;2023-04-29T07:34:07;100198.31;;;12.46;100.00
18533;BME280;9396;51.510;11.934;2023-04-29T07:36:34;100194.00;;;12.37;100.00
18533;BME280;9396;51.510;11.934;2023-04-29T07:39:01;100209.69;;;12.32;100.00
18533;BME280;9396;51.510;11.934;2023-04-29T07:41:29;100207.72;;;12.26;100.00
18533;BME280;9396;51.510;11.934;2023-04-29T07:43:55;100214.53;;;12.37;100.00
18533;BME280;9396;51.510;11.934;2023-04-29T07:46:22;100213.19;;;12.33;100.00
18533;BME280;9396;51.510;11.934;2023-04-29T07:48:49;100217.38;;;12.35;100.00
18533;BME280;9396;51.510;11.934;2023-04-29T07:51:16;100219.16;;;12.43;100.00
18533;BME280;9396;51.510;11.934;2023-04-29T07:53:42;100223.84;;;12.49;100.00
18533;BME280;9396;51.510;11.934;2023-04-29T07:56:09;100232.34;;;12.44;100.00
18533;BME280;9396;51.510;11.934;2023-04-29T07:58:37;100224.69;;;12.49;100.00
18533;BME280;9396;51.510;11.934;2023-04-29T08:01:05;100230.34;;;12.54;100.00
18533;BME280;9396;51.510;11.934;2023-04-29T08:03:32;100231.81;;;12.57;100.00
18533;BME280;9396;51.510;11.934;2023-04-29T08:06:00;100233.97;;;12.61;100.00
18533;BME280;9396;51.510;11.934;2023-04-29T08:08:27;100232.59;;;12.73;100.00
18533;BME280;9396;51.510;11.934;2023-04-29T08:10:54;100235.91;;;12.83;100.00
18533;BME280;9396;51.510;11.934;2023-04-29T08:13:21;100244.25;;;12.88;100.00
18533;BME280;9396;51.510;11.934;2023-04-29T08:15:49;100245.38;;;12.94;100.00
18533;BME280;9396;51.510;11.934;2023-04-29T08:18:15;100254.09;;;12.80;100.00
18533;BME280;9396;51.510;11.934;2023-04-29T08:20:42;100262.97;;;12.72;100.00
18533;BME280;9396;51.510;11.934;2023-04-29T08:23:09;100269.31;;;12.71;100.00
18533;BME280;9396;51.510;11.934;2023-04-29T08:25:35;100282.16;;;12.68;100.00
18533;BME280;9396;51.510;11.934;2023-04-29T08:28:02;100278.34;;;12.46;100.00
18533;BME280;9396;51.510;11.934;2023-04-29T08:30:29;100285.53;;;12.38;100.00
18533;BME280;9396;51.510;11.934;2023-04-29T08:32:57;100274.88;;;12.38;100.00
18533;BME280;9396;51.510;11.934;2023-04-29T08:35:24;100286.88;;;12.34;100.00
18533;BME280;9396;51.510;11.934;2023-04-29T08:37:52;100289.53;;;12.34;100.00
18533;BME280;9396;51.510;11.934;2023-04-29T08:40:18;100290.56;;;12.33;100.00
18533;BME280;9396;51.510;11.934;2023-04-29T08:42:47;100290.06;;;12.29;100.00
18533;BME280;9396;51.510;11.934;2023-04-29T08:45:18;100297.53;;;12.34;100.00
18533;BME280;9396;51.510;11.934;2023-04-29T08:47:45;100303.03;;;12.32;100.00
18533;BME280;9396;51.510;11.934;2023-04-29T08:50:15;100307.03;;;12.28;100.00
18533;BME280;9396;51.510;11.934;2023-04-29T08:52:42;100312.88;;;12.24;100.00
18533;BME280;9396;51.510;11.934;2023-04-29T08:55:09;100305.53;;;12.18;100.00
18533;BME280;9396;51.510;11.934;2023-04-29T08:57:36;100316.22;;;12.26;100.00
18533;BME280;9396;51.510;11.934;2023-04-29T09:00:06;100313.72;;;12.40;100.00
18533;BME280;9396;51.510;11.934;2023-04-29T09:02:38;100324.03;;;12.51;100.00
18533;BME280;9396;51.510;11.934;2023-04-29T09:05:08;100320.84;;;12.64;100.00
18533;BME280;9396;51.510;11.934;2023-04-29T09:07:37;100330.53;;;12.65;100.00
18533;BME280;9396;51.510;11.934;2023-04-29T09:10:05;100326.84;;;12.66;100.00
18533;BME280;9396;51.510;11.934;2023-04-29T09:12:32;100329.03;;;12.62;100.00
18533;BME280;9396;51.510;11.934;2023-04-29T09:15:00;100342.72;;;12.43;100.00
18533;BME280;9396;51.510;11.934;2023-04-29T09:17:45;100349.06;;;12.34;100.00
18533;BME280;9396;51.510;11.934;2023-04-29T09:20:25;100350.06;;;12.33;100.00
18533;BME280;9396;51.510;11.934;2023-04-29T09:22:54;100341.72;;;12.36;100.00
18533;BME280;9396;51.510;11.934;2023-04-29T09:25:22;100362.06;;;12.29;100.00
18533;BME280;9396;51.510;11.934;2023-04-29T09:27:49;100362.06;;;12.29;100.00
18533;BME280;9396;51.510;11.934;2023-04-29T09:30:16;100367.38;;;12.13;100.00
18533;BME280;9396;51.510;11.934;2023-04-29T09:32:43;100376.53;;;12.11;100.00
18533;BME280;9396;51.510;11.934;2023-04-29T09:35:21;100246.06;;;11.27;100.00
18533;BME280;9396;51.510;11.934;2023-04-29T09:37:49;100377.72;;;12.16;100.00
18533;BME280;9396;51.510;11.934;2023-04-29T09:40:28;100371.06;;;12.28;100.00
18533;BME280;9396;51.510;11.934;2023-04-29T09:42:56;100381.06;;;12.34;100.00
18533;BME280;9396;51.510;11.934;2023-04-29T09:45:33;100390.25;;;12.40;100.00
18533;BME280;9396;51.510;11.934;2023-04-29T09:48:01;100386.22;;;12.36;100.00
18533;BME280;9396;51.510;11.934;2023-04-29T09:50:29;100388.91;;;12.36;100.00
18533;BME280;9396;51.510;11.934;2023-04-29T09:52:55;100401.56;;;12.34;100.00
18533;BME280;9396;51.510;11.934;2023-04-29T09:55:22;100406.41;;;12.22;100.00
18533;BME280;9396;51.510;11.934;2023-04-29T09:57:50;100407.75;;;12.26;100.00
18533;BME280;9396;51.510;11.934;2023-04-29T10:00:17;100416.91;;;12.32;100.00
18533;BME280;9396;51.510;11.934;2023-04-29T10:02:45;100410.84;;;12.06;100.00
18533;BME280;9396;51.510;11.934;2023-04-29T10:05:13;100424.88;;;12.08;100.00
18533;BME280;9396;51.510;11.934;2023-04-29T10:07:40;100429.53;;;12.06;100.00
18533;BME280;9396;51.510;11.934;2023-04-29T10:10:08;100433.03;;;12.06;100.00
18533;BME280;9396;51.510;11.934;2023-04-29T10:12:36;100433.06;;;12.22;100.00
18533;BME280;9396;51.510;11.934;2023-04-29T10:15:16;100435.44;;;12.33;100.00
18533;BME280;9396;51.510;11.934;2023-04-29T10:17:48;100445.75;;;12.36;100.00
18533;BME280;9396;51.510;11.934;2023-04-29T10:20:21;100424.09;;;12.31;100.00
18533;BME280;9396;51.510;11.934;2023-04-29T10:22:49;100435.94;;;12.37;100.00
18533;BME280;9396;51.510;11.934;2023-04-29T10:25:16;100439.41;;;12.29;100.00
18533;BME280;9396;51.510;11.934;2023-04-29T10:27:44;100445.25;;;12.33;100.00
18533;BME280;9396;51.510;11.934;2023-04-29T10:30:13;100444.41;;;12.32;100.00
18533;BME280;9396;51.510;11.934;2023-04-29T10:32:41;100461.09;;;12.26;100.00
18533;BME280;9396;51.510;11.934;2023-04-29T10:35:09;100453.06;;;12.18;100.00
18533;BME280;9396;51.510;11.934;2023-04-29T10:37:37;100462.88;;;12.10;100.00
18533;BME280;9396;51.510;11.934;2023-04-29T10:40:10;100462.69;;;12.03;100.00
18533;BME280;9396;51.510;11.934;2023-04-29T10:42:43;100467.88;;;12.13;100.00
18533;BME280;9396;51.510;11.934;2023-04-29T10:45:22;100464.69;;;12.09;100.00
18533;BME280;9396;51.510;11.934;2023-04-29T10:48:13;100466.72;;;12.15;100.00
18533;BME280;9396;51.510;11.934;2023-04-29T10:51:00;100462.19;;;12.08;99.99
18533;BME280;9396;51.510;11.934;2023-04-29T10:53:28;100452.53;;;12.15;99.76
18533;BME280;9396;51.510;11.934;2023-04-29T10:56:03;100455.22;;;12.15;99.12
18533;BME280;9396;51.510;11.934;2023-04-29T10:58:35;100455.53;;;12.12;99.70
18533;BME280;9396;51.510;11.934;2023-04-29T11:01:04;100462.88;;;12.18;100.00
18533;BME280;9396;51.510;11.934;2023-04-29T11:03:49;100332.81;;;11.38;99.67
18533;BME280;9396;51.510;11.934;2023-04-29T11:06:20;100459.56;;;12.24;99.82
18533;BME280;9396;51.510;11.934;2023-04-29T11:08:58;100465.59;;;12.34;99.59
18533;BME280;9396;51.510;11.934;2023-04-29T11:11:25;100462.09;;;12.41;98.99
18533;BME280;9396;51.510;11.934;2023-04-29T11:13:53;100465.63;;;12.50;98.51
18533;BME280;9396;51.510;11.934;2023-04-29T11:16:25;100457.94;;;12.55;98.15
18533;BME280;9396;51.510;11.934;2023-04-29T11:19:07;100462.50;;;12.70;97.77
18533;BME280;9396;51.510;11.934;2023-04-29T11:21:34;100470.81;;;12.83;96.01
18533;BME280;9396;51.510;11.934;2023-04-29T11:24:02;100346.38;;;12.10;96.58
18533;BME280;9396;51.510;11.934;2023-04-29T11:26:30;100481.34;;;12.93;95.73
18533;BME280;9396;51.510;11.934;2023-04-29T11:28:57;100481.16;;;12.94;96.05
18533;BME280;9396;51.510;11.934;2023-04-29T11:31:31;100484.19;;;12.91;95.95
18533;BME280;9396;51.510;11.934;2023-04-29T11:33:58;100489.69;;;12.82;96.22
18533;BME280;9396;51.510;11.934;2023-04-29T11:36:25;100493.84;;;12.84;95.67
18533;BME280;9396;51.510;11.934;2023-04-29T11:38:52;100494.22;;;12.98;95.39
18533;BME280;9396;51.510;11.934;2023-04-29T11:41:20;100495.53;;;13.02;95.78
18533;BME280;9396;51.510;11.934;2023-04-29T11:43:54;100498.06;;;13.11;95.51
18533;BME280;9396;51.510;11.934;2023-04-29T11:46:20;100497.91;;;13.21;94.66
18533;BME280;9396;51.510;11.934;2023-04-29T11:48:48;100503.25;;;13.21;93.38
18533;BME280;9396;51.510;11.934;2023-04-29T11:51:16;100503.91;;;13.15;95.30
18533;BME280;9396;51.510;11.934;2023-04-29T11:53:43;100500.56;;;13.13;94.55
18533;BME280;9396;51.510;11.934;2023-04-29T11:56:10;100507.22;;;13.01;94.21
18533;BME280;9396;51.510;11.934;2023-04-29T11:58:37;100506.03;;;12.95;94.66
18533;BME280;9396;51.510;11.934;2023-04-29T12:01:04;100516.22;;;12.91;94.54
18533;BME280;9396;51.510;11.934;2023-04-29T12:03:32;100519.22;;;12.97;94.47
18533;BME280;9396;51.510;11.934;2023-04-29T12:06:01;100513.41;;;13.01;93.85
18533;BME280;9396;51.510;11.934;2023-04-29T12:08:28;100515.56;;;12.98;93.90
18533;BME280;9396;51.510;11.934;2023-04-29T12:10:57;100518.25;;;13.06;95.01
18533;BME280;9396;51.510;11.934;2023-04-29T12:13:26;100517.25;;;13.07;94.63
18533;BME280;9396;51.510;11.934;2023-04-29T12:15:53;100527.13;;;13.06;94.19
18533;BME280;9396;51.510;11.934;2023-04-29T12:18:20;100530.13;;;13.11;93.50
18533;BME280;9396;51.510;11.934;2023-04-29T12:20:48;100522.09;;;13.03;94.52
18533;BME280;9396;51.510;11.934;2023-04-29T12:23:20;100528.78;;;13.07;95.43
18533;BME280;9396;51.510;11.934;2023-04-29T12:25:48;100524.22;;;13.00;94.43
18533;BME280;9396;51.510;11.934;2023-04-29T12:28:16;100525.91;;;13.01;94.07
18533;BME280;9396;51.510;11.934;2023-04-29T12:30:43;100517.09;;;13.16;92.49
18533;BME280;9396;51.510;11.934;2023-04-29T12:33:15;100526.94;;;13.16;93.45
18533;BME280;9396;51.510;11.934;2023-04-29T12:35:41;100526.25;;;13.14;92.96
18533;BME280;9396;51.510;11.934;2023-04-29T12:38:08;100526.78;;;13.09;93.56
18533;BME280;9396;51.510;11.934;2023-04-29T12:40:36;100538.31;;;13.26;94.85
18533;BME280;9396;51.510;11.934;2023-04-29T12:43:06;100542.63;;;13.35;93.40
18533;BME280;9396;51.510;11.934;2023-04-29T12:45:33;100541.97;;;13.33;93.78
18533;BME280;9396;51.510;11.934;2023-04-29T12:48:01;100536.31;;;13.28;94.03
18533;BME280;9396;51.510;11.934;2023-04-29T12:50:32;100555.47;;;13.23;93.34